sensor_id;sensor_type;location;lat;lon;timestamp;P1;durP1;ratioP1;P2;durP2;ratioP2
24813;SDS011;12904;50.088;11.414;2023-04-24T00:00:22;2.40;;;2.20;;
24813;SDS011;12904;50.088;11.414;2023-04-24T00:02:48;4.35;;;2.78;;
24813;SDS011;12904;50.088;11.414;2023-04-24T00:05:14;3.30;;;3.00;;
24813;SDS011;12904;50.088;11.414;2023-04-24T00:07:40;3.58;;;2.88;;
24813;SDS011;12904;50.088;11.414;2023-04-24T00:10:06;4.43;;;3.38;;
24813;SDS011;12904;50.088;11.414;2023-04-24T00:12:33;4.57;;;3.63;;
24813;SDS011;12904;50.088;11.414;2023-04-24T00:14:59;6.22;;;3.80;;
24813;SDS011;12904;50.088;11.414;2023-04-24T00:17:25;3.55;;;3.25;;
24813;SDS011;12904;50.088;11.414;2023-04-24T00:19:51;4.38;;;3.97;;
24813;SDS011;12904;50.088;11.414;2023-04-24T00:22:23;3.58;;;2.83;;
24813;SDS011;12904;50.088;11.414;2023-04-24T00:24:52;4.97;;;3.55;;
24813;SDS011;12904;50.088;11.414;2023-04-24T00:27:17;4.72;;;3.85;;
24813;SDS011;12904;50.088;11.414;2023-04-24T00:29:43;4.15;;;3.60;;
24813;SDS011;12904;50.088;11.414;2023-04-24T00:32:09;4.13;;;3.72;;
24813;SDS011;12904;50.088;11.414;2023-04-24T00:34:34;6.25;;;4.10;;
24813;SDS011;12904;50.088;11.414;2023-04-24T00:37:00;4.55;;;4.15;;
24813;SDS011;12904;50.088;11.414;2023-04-24T00:39:26;3.65;;;3.35;;
24813;SDS011;12904;50.088;11.414;2023-04-24T00:41:51;5.13;;;3.47;;
24813;SDS011;12904;50.088;11.414;2023-04-24T00:44:18;4.35;;;3.53;;
24813;SDS011;12904;50.088;11.414;2023-04-24T00:46:43;4.40;;;4.00;;
24813;SDS011;12904;50.088;11.414;2023-04-24T00:49:10;10.25;;;3.60;;
24813;SDS011;12904;50.088;11.414;2023-04-24T00:51:37;4.40;;;3.65;;
24813;SDS011;12904;50.088;11.414;2023-04-24T00:54:02;6.85;;;4.25;;
24813;SDS011;12904;50.088;11.414;2023-04-24T00:56:28;3.92;;;3.50;;
24813;SDS011;12904;50.088;11.414;2023-04-24T00:58:54;7.30;;;4.57;;
24813;SDS011;12904;50.088;11.414;2023-04-24T01:01:21;4.32;;;3.92;;
24813;SDS011;12904;50.088;11.414;2023-04-24T01:03:47;4.35;;;3.95;;
24813;SDS011;12904;50.088;11.414;2023-04-24T01:06:18;3.88;;;3.50;;
24813;SDS011;12904;50.088;11.414;2023-04-24T01:08:44;4.45;;;4.05;;
24813;SDS011;12904;50.088;11.414;2023-04-24T01:11:12;7.78;;;3.40;;
24813;SDS011;12904;50.088;11.414;2023-04-24T01:13:39;3.13;;;2.83;;
24813;SDS011;12904;50.088;11.414;2023-04-24T01:16:05;3.10;;;2.80;;
24813;SDS011;12904;50.088;11.414;2023-04-24T01:18:30;5.50;;;3.10;;
24813;SDS011;12904;50.088;11.414;2023-04-24T01:20:57;3.75;;;3.22;;
24813;SDS011;12904;50.088;11.414;2023-04-24T01:23:24;4.18;;;3.08;;
24813;SDS011;12904;50.088;11.414;2023-04-24T01:25:51;5.50;;;3.35;;
24813;SDS011;12904;50.088;11.414;2023-04-24T01:28:17;4.50;;;3.95;;
24813;SDS011;12904;50.088;11.414;2023-04-24T01:30:44;4.13;;;3.50;;
24813;SDS011;12904;50.088;11.414;2023-04-24T01:33:10;3.47;;;3.10;;
24813;SDS011;12904;50.088;11.414;2023-04-24T01:35:37;4.95;;;3.28;;
24813;SDS011;12904;50.088;11.414;2023-04-24T01:38:03;3.85;;;3.00;;
24813;SDS011;12904;50.088;11.414;2023-04-24T01:40:29;6.47;;;3.42;;
24813;SDS011;12904;50.088;11.414;2023-04-24T01:42:55;3.45;;;3.15;;
24813;SDS011;12904;50.088;11.414;2023-04-24T01:45:21;5.10;;;3.20;;
24813;SDS011;12904;50.088;11.414;2023-04-24T01:47:47;8.07;;;3.20;;
24813;SDS011;12904;50.088;11.414;2023-04-24T01:50:14;4.50;;;3.30;;
24813;SDS011;12904;50.088;11.414;2023-04-24T01:52:40;4.22;;;2.63;;
24813;SDS011;12904;50.088;11.414;2023-04-24T01:55:06;4.35;;;3.13;;
24813;SDS011;12904;50.088;11.414;2023-04-24T01:57:32;3.00;;;2.75;;
24813;SDS011;12904;50.088;11.414;2023-04-24T01:59:58;2.90;;;2.60;;
24813;SDS011;12904;50.088;11.414;2023-04-24T02:02:24;3.40;;;2.72;;
24813;SDS011;12904;50.088;11.414;2023-04-24T02:04:52;3.65;;;2.55;;
24813;SDS011;12904;50.088;11.414;2023-04-24T02:07:19;4.03;;;2.50;;
24813;SDS011;12904;50.088;11.414;2023-04-24T02:09:45;5.43;;;2.90;;
24813;SDS011;12904;50.088;11.414;2023-04-24T02:12:11;4.10;;;2.67;;
24813;SDS011;12904;50.088;11.414;2023-04-24T02:14:36;4.00;;;2.60;;
24813;SDS011;12904;50.088;11.414;2023-04-24T02:17:02;3.08;;;2.78;;
24813;SDS011;12904;50.088;11.414;2023-04-24T02:19:28;6.82;;;2.75;;
24813;SDS011;12904;50.088;11.414;2023-04-24T02:21:53;5.85;;;3.10;;
24813;SDS011;12904;50.088;11.414;2023-04-24T02:24:19;4.43;;;2.67;;
24813;SDS011;12904;50.088;11.414;2023-04-24T02:26:45;3.67;;;3.03;;
24813;SDS011;12904;50.088;11.414;2023-04-24T02:29:10;3.72;;;2.67;;
24813;SDS011;12904;50.088;11.414;2023-04-24T02:31:36;2.47;;;2.28;;
24813;SDS011;12904;50.088;11.414;2023-04-24T02:34:01;3.30;;;3.00;;
24813;SDS011;12904;50.088;11.414;2023-04-24T02:36:27;6.00;;;2.97;;
24813;SDS011;12904;50.088;11.414;2023-04-24T02:38:53;3.38;;;2.90;;
24813;SDS011;12904;50.088;11.414;2023-04-24T02:41:18;6.88;;;2.95;;
24813;SDS011;12904;50.088;11.414;2023-04-24T02:43:44;3.90;;;2.95;;
24813;SDS011;12904;50.088;11.414;2023-04-24T02:46:10;5.13;;;3.95;;
24813;SDS011;12904;50.088;11.414;2023-04-24T02:48:36;4.60;;;3.08;;
24813;SDS011;12904;50.088;11.414;2023-04-24T02:51:01;4.60;;;3.80;;
24813;SDS011;12904;50.088;11.414;2023-04-24T02:53:27;4.90;;;3.75;;
24813;SDS011;12904;50.088;11.414;2023-04-24T02:55:54;8.52;;;3.30;;
24813;SDS011;12904;50.088;11.414;2023-04-24T02:58:20;4.38;;;3.75;;
24813;SDS011;12904;50.088;11.414;2023-04-24T03:00:46;5.65;;;4.45;;
24813;SDS011;12904;50.088;11.414;2023-04-24T03:03:12;5.07;;;3.47;;
24813;SDS011;12904;50.088;11.414;2023-04-24T03:05:38;5.57;;;4.07;;
24813;SDS011;12904;50.088;11.414;2023-04-24T03:08:04;8.02;;;3.72;;
24813;SDS011;12904;50.088;11.414;2023-04-24T03:10:30;3.60;;;3.30;;
24813;SDS011;12904;50.088;11.414;2023-04-24T03:12:55;4.63;;;3.22;;
24813;SDS011;12904;50.088;11.414;2023-04-24T03:15:21;4.00;;;3.35;;
24813;SDS011;12904;50.088;11.414;2023-04-24T03:17:46;4.55;;;3.85;;
24813;SDS011;12904;50.088;11.414;2023-04-24T03:20:13;3.58;;;3.22;;
24813;SDS011;12904;50.088;11.414;2023-04-24T03:22:38;3.97;;;3.58;;
24813;SDS011;12904;50.088;11.414;2023-04-24T03:25:04;6.60;;;3.55;;
24813;SDS011;12904;50.088;11.414;2023-04-24T03:27:30;5.03;;;4.20;;
24813;SDS011;12904;50.088;11.414;2023-04-24T03:29:56;6.75;;;4.13;;
24813;SDS011;12904;50.088;11.414;2023-04-24T03:32:22;4.68;;;4.28;;
24813;SDS011;12904;50.088;11.414;2023-04-24T03:34:48;6.60;;;4.22;;
24813;SDS011;12904;50.088;11.414;2023-04-24T03:37:14;5.35;;;3.85;;
24813;SDS011;12904;50.088;11.414;2023-04-24T03:39:43;5.10;;;4.63;;
24813;SDS011;12904;50.088;11.414;2023-04-24T03:42:09;6.10;;;5.43;;
24813;SDS011;12904;50.088;11.414;2023-04-24T03:44:35;8.70;;;5.03;;
24813;SDS011;12904;50.088;11.414;2023-04-24T03:47:01;9.73;;;6.40;;
24813;SDS011;12904;50.088;11.414;2023-04-24T03:49:26;6.80;;;6.20;;
24813;SDS011;12904;50.088;11.414;2023-04-24T03:51:52;14.80;;;6.57;;
24813;SDS011;12904;50.088;11.414;2023-04-24T03:54:18;7.47;;;6.70;;
24813;SDS011;12904;50.088;11.414;2023-04-24T03:56:44;7.93;;;6.65;;
24813;SDS011;12904;50.088;11.414;2023-04-24T03:59:10;8.60;;;6.15;;
24813;SDS011;12904;50.088;11.414;2023-04-24T04:01:35;10.23;;;7.82;;
24813;SDS011;12904;50.088;11.414;2023-04-24T04:04:02;9.43;;;7.78;;
24813;SDS011;12904;50.088;11.414;2023-04-24T04:06:32;10.18;;;7.53;;
24813;SDS011;12904;50.088;11.414;2023-04-24T04:08:58;11.32;;;7.28;;
24813;SDS011;12904;50.088;11.414;2023-04-24T04:11:24;8.85;;;6.97;;
24813;SDS011;12904;50.088;11.414;2023-04-24T04:13:50;12.10;;;8.02;;
24813;SDS011;12904;50.088;11.414;2023-04-24T04:16:15;13.20;;;7.35;;
24813;SDS011;12904;50.088;11.414;2023-04-24T04:18:42;10.30;;;7.68;;
24813;SDS011;12904;50.088;11.414;2023-04-24T04:21:08;9.32;;;7.25;;
24813;SDS011;12904;50.088;11.414;2023-04-24T04:23:34;8.90;;;6.78;;
24813;SDS011;12904;50.088;11.414;2023-04-24T04:26:00;8.05;;;7.20;;
24813;SDS011;12904;50.088;11.414;2023-04-24T04:28:26;7.60;;;6.88;;
24813;SDS011;12904;50.088;11.414;2023-04-24T04:30:51;7.40;;;6.22;;
24813;SDS011;12904;50.088;11.414;2023-04-24T04:33:20;9.18;;;7.18;;
24813;SDS011;12904;50.088;11.414;2023-04-24T04:35:46;7.05;;;6.40;;
24813;SDS011;12904;50.088;11.414;2023-04-24T04:38:16;8.57;;;6.80;;
24813;SDS011;12904;50.088;11.414;2023-04-24T04:40:43;7.43;;;6.68;;
24813;SDS011;12904;50.088;11.414;2023-04-24T04:43:09;8.10;;;6.43;;
24813;SDS011;12904;50.088;11.414;2023-04-24T04:45:36;7.32;;;6.05;;
24813;SDS011;12904;50.088;11.414;2023-04-24T04:48:03;8.13;;;6.82;;
24813;SDS011;12904;50.088;11.414;2023-04-24T04:50:31;7.18;;;6.47;;
24813;SDS011;12904;50.088;11.414;2023-04-24T04:52:56;9.20;;;6.63;;
24813;SDS011;12904;50.088;11.414;2023-04-24T04:55:22;10.38;;;7.30;;
24813;SDS011;12904;50.088;11.414;2023-04-24T04:57:47;8.77;;;6.93;;
24813;SDS011;12904;50.088;11.414;2023-04-24T05:00:13;7.30;;;6.60;;
24813;SDS011;12904;50.088;11.414;2023-04-24T05:02:39;8.00;;;7.10;;
24813;SDS011;12904;50.088;11.414;2023-04-24T05:05:05;7.70;;;7.00;;
24813;SDS011;12904;50.088;11.414;2023-04-24T05:07:32;6.70;;;6.10;;
24813;SDS011;12904;50.088;11.414;2023-04-24T05:09:58;7.47;;;5.88;;
24813;SDS011;12904;50.088;11.414;2023-04-24T05:12:23;13.45;;;8.05;;
24813;SDS011;12904;50.088;11.414;2023-04-24T05:14:49;7.43;;;6.70;;
24813;SDS011;12904;50.088;11.414;2023-04-24T05:17:15;7.43;;;5.88;;
24813;SDS011;12904;50.088;11.414;2023-04-24T05:19:41;6.22;;;5.57;;
24813;SDS011;12904;50.088;11.414;2023-04-24T05:22:07;6.70;;;4.97;;
24813;SDS011;12904;50.088;11.414;2023-04-24T05:24:34;6.28;;;5.13;;
24813;SDS011;12904;50.088;11.414;2023-04-24T05:27:00;13.57;;;4.60;;
24813;SDS011;12904;50.088;11.414;2023-04-24T05:29:27;6.22;;;4.85;;
24813;SDS011;12904;50.088;11.414;2023-04-24T05:31:55;5.25;;;4.53;;
24813;SDS011;12904;50.088;11.414;2023-04-24T05:34:21;5.35;;;4.10;;
24813;SDS011;12904;50.088;11.414;2023-04-24T05:36:47;4.78;;;3.92;;
24813;SDS011;12904;50.088;11.414;2023-04-24T05:39:13;6.55;;;4.18;;
24813;SDS011;12904;50.088;11.414;2023-04-24T05:41:39;6.78;;;3.80;;
24813;SDS011;12904;50.088;11.414;2023-04-24T05:44:05;6.70;;;4.35;;
24813;SDS011;12904;50.088;11.414;2023-04-24T05:46:31;3.63;;;3.28;;
24813;SDS011;12904;50.088;11.414;2023-04-24T05:48:57;5.00;;;3.33;;
24813;SDS011;12904;50.088;11.414;2023-04-24T05:51:23;3.10;;;2.80;;
24813;SDS011;12904;50.088;11.414;2023-04-24T05:53:48;6.72;;;3.92;;
24813;SDS011;12904;50.088;11.414;2023-04-24T05:56:14;4.18;;;3.13;;
24813;SDS011;12904;50.088;11.414;2023-04-24T05:58:40;3.03;;;2.33;;
24813;SDS011;12904;50.088;11.414;2023-04-24T06:01:06;3.65;;;2.08;;
24813;SDS011;12904;50.088;11.414;2023-04-24T06:03:31;6.43;;;2.35;;
24813;SDS011;12904;50.088;11.414;2023-04-24T06:05:57;2.17;;;1.98;;
24813;SDS011;12904;50.088;11.414;2023-04-24T06:08:23;4.57;;;2.40;;
24813;SDS011;12904;50.088;11.414;2023-04-24T06:10:49;3.17;;;1.65;;
24813;SDS011;12904;50.088;11.414;2023-04-24T06:13:14;2.88;;;1.40;;
24813;SDS011;12904;50.088;11.414;2023-04-24T06:15:41;3.13;;;1.98;;
24813;SDS011;12904;50.088;11.414;2023-04-24T06:18:07;4.20;;;1.42;;
24813;SDS011;12904;50.088;11.414;2023-04-24T06:20:35;2.60;;;1.38;;
24813;SDS011;12904;50.088;11.414;2023-04-24T06:23:00;2.70;;;1.20;;
24813;SDS011;12904;50.088;11.414;2023-04-24T06:25:26;2.03;;;1.02;;
24813;SDS011;12904;50.088;11.414;2023-04-24T06:27:52;2.78;;;1.30;;
24813;SDS011;12904;50.088;11.414;2023-04-24T06:30:18;1.25;;;0.98;;
24813;SDS011;12904;50.088;11.414;2023-04-24T06:32:44;2.08;;;1.00;;
24813;SDS011;12904;50.088;11.414;2023-04-24T06:35:10;2.42;;;0.93;;
24813;SDS011;12904;50.088;11.414;2023-04-24T06:37:37;4.65;;;1.20;;
24813;SDS011;12904;50.088;11.414;2023-04-24T06:40:06;1.35;;;0.80;;
24813;SDS011;12904;50.088;11.414;2023-04-24T06:42:32;3.75;;;1.15;;
24813;SDS011;12904;50.088;11.414;2023-04-24T06:44:58;1.90;;;1.10;;
24813;SDS011;12904;50.088;11.414;2023-04-24T06:47:24;4.07;;;1.10;;
24813;SDS011;12904;50.088;11.414;2023-04-24T06:49:49;1.40;;;1.02;;
24813;SDS011;12904;50.088;11.414;2023-04-24T06:52:17;5.15;;;0.98;;
24813;SDS011;12904;50.088;11.414;2023-04-24T06:54:43;3.65;;;0.90;;
24813;SDS011;12904;50.088;11.414;2023-04-24T06:57:09;1.40;;;1.00;;
24813;SDS011;12904;50.088;11.414;2023-04-24T06:59:35;1.65;;;0.90;;
24813;SDS011;12904;50.088;11.414;2023-04-24T07:02:01;2.15;;;1.05;;
24813;SDS011;12904;50.088;11.414;2023-04-24T07:04:27;1.90;;;0.80;;
24813;SDS011;12904;50.088;11.414;2023-04-24T07:06:53;1.48;;;0.60;;
24813;SDS011;12904;50.088;11.414;2023-04-24T07:09:20;2.63;;;1.00;;
24813;SDS011;12904;50.088;11.414;2023-04-24T07:11:47;1.90;;;0.77;;
24813;SDS011;12904;50.088;11.414;2023-04-24T07:14:13;2.53;;;0.65;;
24813;SDS011;12904;50.088;11.414;2023-04-24T07:16:38;0.98;;;0.65;;
24813;SDS011;12904;50.088;11.414;2023-04-24T07:19:04;2.25;;;0.80;;
24813;SDS011;12904;50.088;11.414;2023-04-24T07:21:30;2.30;;;0.70;;
24813;SDS011;12904;50.088;11.414;2023-04-24T07:23:57;1.45;;;0.60;;
24813;SDS011;12904;50.088;11.414;2023-04-24T07:26:23;0.77;;;0.50;;
24813;SDS011;12904;50.088;11.414;2023-04-24T07:28:49;0.80;;;0.70;;
24813;SDS011;12904;50.088;11.414;2023-04-24T07:31:14;1.33;;;0.50;;
24813;SDS011;12904;50.088;11.414;2023-04-24T07:33:40;0.82;;;0.65;;
24813;SDS011;12904;50.088;11.414;2023-04-24T07:36:06;1.10;;;0.63;;
24813;SDS011;12904;50.088;11.414;2023-04-24T07:38:32;1.17;;;0.55;;
24813;SDS011;12904;50.088;11.414;2023-04-24T07:40:57;0.75;;;0.60;;
24813;SDS011;12904;50.088;11.414;2023-04-24T07:43:23;2.42;;;0.70;;
24813;SDS011;12904;50.088;11.414;2023-04-24T07:45:51;2.13;;;0.60;;
24813;SDS011;12904;50.088;11.414;2023-04-24T07:48:17;0.68;;;0.60;;
24813;SDS011;12904;50.088;11.414;2023-04-24T07:50:43;2.17;;;0.80;;
24813;SDS011;12904;50.088;11.414;2023-04-24T07:53:09;1.50;;;0.77;;
24813;SDS011;12904;50.088;11.414;2023-04-24T07:55:35;0.77;;;0.57;;
24813;SDS011;12904;50.088;11.414;2023-04-24T07:58:01;1.02;;;0.70;;
24813;SDS011;12904;50.088;11.414;2023-04-24T08:00:27;2.00;;;0.98;;
24813;SDS011;12904;50.088;11.414;2023-04-24T08:02:52;1.08;;;0.80;;
24813;SDS011;12904;50.088;11.414;2023-04-24T08:05:18;0.80;;;0.60;;
24813;SDS011;12904;50.088;11.414;2023-04-24T08:07:45;0.80;;;0.80;;
24813;SDS011;12904;50.088;11.414;2023-04-24T08:10:13;0.95;;;0.60;;
24813;SDS011;12904;50.088;11.414;2023-04-24T08:12:40;2.35;;;0.80;;
24813;SDS011;12904;50.088;11.414;2023-04-24T08:15:06;2.05;;;0.65;;
24813;SDS011;12904;50.088;11.414;2023-04-24T08:17:33;3.03;;;0.70;;
24813;SDS011;12904;50.088;11.414;2023-04-24T08:20:00;1.17;;;0.70;;
24813;SDS011;12904;50.088;11.414;2023-04-24T08:22:27;2.60;;;0.73;;
24813;SDS011;12904;50.088;11.414;2023-04-24T08:24:53;0.95;;;0.73;;
24813;SDS011;12904;50.088;11.414;2023-04-24T08:27:19;1.73;;;0.90;;
24813;SDS011;12904;50.088;11.414;2023-04-24T08:29:44;1.23;;;0.90;;
24813;SDS011;12904;50.088;11.414;2023-04-24T08:32:10;1.15;;;0.90;;
24813;SDS011;12904;50.088;11.414;2023-04-24T08:34:35;2.38;;;1.00;;
24813;SDS011;12904;50.088;11.414;2023-04-24T08:37:02;1.92;;;0.90;;
24813;SDS011;12904;50.088;11.414;2023-04-24T08:39:27;3.28;;;0.95;;
24813;SDS011;12904;50.088;11.414;2023-04-24T08:41:54;1.00;;;0.90;;
24813;SDS011;12904;50.088;11.414;2023-04-24T08:44:20;1.00;;;0.90;;
24813;SDS011;12904;50.088;11.414;2023-04-24T08:46:47;1.88;;;0.93;;
24813;SDS011;12904;50.088;11.414;2023-04-24T08:49:14;1.00;;;0.90;;
24813;SDS011;12904;50.088;11.414;2023-04-24T08:51:43;1.25;;;0.90;;
24813;SDS011;12904;50.088;11.414;2023-04-24T08:54:11;2.20;;;1.10;;
24813;SDS011;12904;50.088;11.414;2023-04-24T08:56:37;1.88;;;1.00;;
24813;SDS011;12904;50.088;11.414;2023-04-24T08:59:05;1.60;;;1.00;;
24813;SDS011;12904;50.088;11.414;2023-04-24T09:01:32;1.20;;;0.93;;
24813;SDS011;12904;50.088;11.414;2023-04-24T09:04:02;1.42;;;1.10;;
24813;SDS011;12904;50.088;11.414;2023-04-24T09:06:28;1.42;;;1.00;;
24813;SDS011;12904;50.088;11.414;2023-04-24T09:08:55;2.08;;;1.00;;
24813;SDS011;12904;50.088;11.414;2023-04-24T09:11:25;2.47;;;1.10;;
24813;SDS011;12904;50.088;11.414;2023-04-24T09:13:51;1.95;;;1.63;;
24813;SDS011;12904;50.088;11.414;2023-04-24T09:16:19;1.45;;;1.10;;
24813;SDS011;12904;50.088;11.414;2023-04-24T09:18:45;1.05;;;0.90;;
24813;SDS011;12904;50.088;11.414;2023-04-24T09:21:11;1.63;;;1.20;;
24813;SDS011;12904;50.088;11.414;2023-04-24T09:23:37;0.95;;;0.95;;
24813;SDS011;12904;50.088;11.414;2023-04-24T09:26:03;1.13;;;1.00;;
24813;SDS011;12904;50.088;11.414;2023-04-24T09:28:32;1.00;;;0.90;;
24813;SDS011;12904;50.088;11.414;2023-04-24T09:31:06;0.93;;;0.82;;
24813;SDS011;12904;50.088;11.414;2023-04-24T09:33:32;1.50;;;1.08;;
24813;SDS011;12904;50.088;11.414;2023-04-24T09:35:58;1.40;;;0.90;;
24813;SDS011;12904;50.088;11.414;2023-04-24T09:38:34;2.90;;;1.02;;
24813;SDS011;12904;50.088;11.414;2023-04-24T09:41:05;2.67;;;1.20;;
24813;SDS011;12904;50.088;11.414;2023-04-24T09:43:33;1.17;;;1.08;;
24813;SDS011;12904;50.088;11.414;2023-04-24T09:46:05;2.83;;;0.93;;
24813;SDS011;12904;50.088;11.414;2023-04-24T09:48:33;1.88;;;1.10;;
24813;SDS011;12904;50.088;11.414;2023-04-24T09:51:01;1.40;;;1.30;;
24813;SDS011;12904;50.088;11.414;2023-04-24T09:53:28;1.25;;;1.10;;
24813;SDS011;12904;50.088;11.414;2023-04-24T09:55:55;1.38;;;1.00;;
24813;SDS011;12904;50.088;11.414;2023-04-24T09:58:25;1.35;;;1.20;;
24813;SDS011;12904;50.088;11.414;2023-04-24T10:00:54;1.15;;;1.00;;
24813;SDS011;12904;50.088;11.414;2023-04-24T10:03:23;3.30;;;1.00;;
24813;SDS011;12904;50.088;11.414;2023-04-24T10:05:51;1.10;;;1.00;;
24813;SDS011;12904;50.088;11.414;2023-04-24T10:08:17;1.48;;;1.20;;
24813;SDS011;12904;50.088;11.414;2023-04-24T10:10:45;1.67;;;0.90;;
24813;SDS011;12904;50.088;11.414;2023-04-24T10:13:12;0.85;;;0.70;;
24813;SDS011;12904;50.088;11.414;2023-04-24T10:15:40;2.40;;;0.93;;
24813;SDS011;12904;50.088;11.414;2023-04-24T10:18:06;0.80;;;0.80;;
24813;SDS011;12904;50.088;11.414;2023-04-24T10:20:34;2.58;;;1.20;;
24813;SDS011;12904;50.088;11.414;2023-04-24T10:23:01;1.45;;;1.10;;
24813;SDS011;12904;50.088;11.414;2023-04-24T10:25:32;1.83;;;1.00;;
24813;SDS011;12904;50.088;11.414;2023-04-24T10:28:02;0.85;;;0.85;;
24813;SDS011;12904;50.088;11.414;2023-04-24T10:30:32;1.40;;;0.80;;
24813;SDS011;12904;50.088;11.414;2023-04-24T10:33:05;1.48;;;0.95;;
24813;SDS011;12904;50.088;11.414;2023-04-24T10:35:34;1.40;;;0.88;;
24813;SDS011;12904;50.088;11.414;2023-04-24T10:40:33;1.05;;;0.95;;
24813;SDS011;12904;50.088;11.414;2023-04-24T10:43:02;0.85;;;0.80;;
24813;SDS011;12904;50.088;11.414;2023-04-24T10:50:25;2.20;;;1.15;;
24813;SDS011;12904;50.088;11.414;2023-04-24T10:52:52;4.25;;;1.00;;
24813;SDS011;12904;50.088;11.414;2023-04-24T10:58:11;2.40;;;1.20;;
24813;SDS011;12904;50.088;11.414;2023-04-24T11:00:40;2.25;;;1.15;;
24813;SDS011;12904;50.088;11.414;2023-04-24T11:03:07;4.20;;;1.20;;
24813;SDS011;12904;50.088;11.414;2023-04-24T11:05:52;2.17;;;1.25;;
24813;SDS011;12904;50.088;11.414;2023-04-24T11:10:57;1.50;;;1.20;;
24813;SDS011;12904;50.088;11.414;2023-04-24T11:13:24;1.80;;;1.13;;
24813;SDS011;12904;50.088;11.414;2023-04-24T11:26:54;1.02;;;0.60;;
24813;SDS011;12904;50.088;11.414;2023-04-24T11:29:22;1.33;;;0.65;;
24813;SDS011;12904;50.088;11.414;2023-04-24T11:31:48;1.52;;;0.70;;
24813;SDS011;12904;50.088;11.414;2023-04-24T11:34:16;0.68;;;0.68;;
24813;SDS011;12904;50.088;11.414;2023-04-24T11:36:43;0.70;;;0.63;;
24813;SDS011;12904;50.088;11.414;2023-04-24T11:39:10;0.75;;;0.75;;
24813;SDS011;12904;50.088;11.414;2023-04-24T11:41:36;0.70;;;0.70;;
24813;SDS011;12904;50.088;11.414;2023-04-24T11:44:02;0.85;;;0.70;;
24813;SDS011;12904;50.088;11.414;2023-04-24T11:46:30;2.42;;;0.90;;
24813;SDS011;12904;50.088;11.414;2023-04-24T11:48:57;0.90;;;0.70;;
24813;SDS011;12904;50.088;11.414;2023-04-24T11:51:23;1.23;;;0.85;;
24813;SDS011;12904;50.088;11.414;2023-04-24T11:53:53;0.80;;;0.80;;
24813;SDS011;12904;50.088;11.414;2023-04-24T11:56:23;2.72;;;0.70;;
24813;SDS011;12904;50.088;11.414;2023-04-24T11:58:51;1.88;;;0.90;;
24813;SDS011;12904;50.088;11.414;2023-04-24T12:01:19;0.80;;;0.80;;
24813;SDS011;12904;50.088;11.414;2023-04-24T12:03:49;0.80;;;0.80;;
24813;SDS011;12904;50.088;11.414;2023-04-24T12:06:16;1.30;;;1.20;;
24813;SDS011;12904;50.088;11.414;2023-04-24T12:08:45;1.13;;;1.02;;
24813;SDS011;12904;50.088;11.414;2023-04-24T12:11:14;1.45;;;1.20;;
24813;SDS011;12904;50.088;11.414;2023-04-24T12:13:41;2.85;;;1.30;;
24813;SDS011;12904;50.088;11.414;2023-04-24T12:16:07;1.58;;;1.30;;
24813;SDS011;12904;50.088;11.414;2023-04-24T12:18:33;1.40;;;1.25;;
24813;SDS011;12904;50.088;11.414;2023-04-24T12:21:14;1.35;;;1.25;;
24813;SDS011;12904;50.088;11.414;2023-04-24T12:23:47;1.92;;;1.40;;
24813;SDS011;12904;50.088;11.414;2023-04-24T12:26:19;1.23;;;1.10;;
24813;SDS011;12904;50.088;11.414;2023-04-24T12:28:47;2.83;;;1.60;;
24813;SDS011;12904;50.088;11.414;2023-04-24T12:31:16;3.05;;;1.38;;
24813;SDS011;12904;50.088;11.414;2023-04-24T12:33:42;1.50;;;1.40;;
24813;SDS011;12904;50.088;11.414;2023-04-24T12:36:11;2.75;;;1.38;;
24813;SDS011;12904;50.088;11.414;2023-04-24T12:38:37;2.53;;;1.40;;
24813;SDS011;12904;50.088;11.414;2023-04-24T12:41:07;1.75;;;1.10;;
24813;SDS011;12904;50.088;11.414;2023-04-24T12:43:34;3.13;;;1.77;;
24813;SDS011;12904;50.088;11.414;2023-04-24T12:46:01;3.08;;;1.50;;
24813;SDS011;12904;50.088;11.414;2023-04-24T12:48:27;8.05;;;1.30;;
24813;SDS011;12904;50.088;11.414;2023-04-24T12:50:53;1.60;;;1.50;;
24813;SDS011;12904;50.088;11.414;2023-04-24T12:53:20;1.52;;;1.00;;
24813;SDS011;12904;50.088;11.414;2023-04-24T12:55:46;1.80;;;1.35;;
24813;SDS011;12904;50.088;11.414;2023-04-24T13:00:45;1.30;;;1.20;;
24813;SDS011;12904;50.088;11.414;2023-04-24T13:03:11;1.60;;;1.38;;
24813;SDS011;12904;50.088;11.414;2023-04-24T13:05:37;1.73;;;1.15;;
24813;SDS011;12904;50.088;11.414;2023-04-24T13:08:03;2.40;;;1.30;;
24813;SDS011;12904;50.088;11.414;2023-04-24T13:10:29;1.52;;;1.33;;
24813;SDS011;12904;50.088;11.414;2023-04-24T13:12:55;1.42;;;1.30;;
24813;SDS011;12904;50.088;11.414;2023-04-24T13:15:21;1.58;;;1.40;;
24813;SDS011;12904;50.088;11.414;2023-04-24T13:17:47;2.22;;;1.40;;
24813;SDS011;12904;50.088;11.414;2023-04-24T13:20:12;2.38;;;1.42;;
24813;SDS011;12904;50.088;11.414;2023-04-24T13:22:38;1.58;;;1.48;;
24813;SDS011;12904;50.088;11.414;2023-04-24T13:25:04;1.20;;;1.02;;
24813;SDS011;12904;50.088;11.414;2023-04-24T13:27:31;2.95;;;1.48;;
24813;SDS011;12904;50.088;11.414;2023-04-24T13:29:56;1.80;;;1.42;;
24813;SDS011;12904;50.088;11.414;2023-04-24T13:32:22;1.60;;;1.50;;
24813;SDS011;12904;50.088;11.414;2023-04-24T13:34:47;1.77;;;1.10;;
24813;SDS011;12904;50.088;11.414;2023-04-24T13:37:13;1.65;;;1.10;;
24813;SDS011;12904;50.088;11.414;2023-04-24T13:39:39;1.50;;;1.40;;
24813;SDS011;12904;50.088;11.414;2023-04-24T13:42:06;1.75;;;1.40;;
24813;SDS011;12904;50.088;11.414;2023-04-24T13:44:31;1.65;;;1.55;;
24813;SDS011;12904;50.088;11.414;2023-04-24T13:46:57;1.40;;;1.30;;
24813;SDS011;12904;50.088;11.414;2023-04-24T13:49:24;1.10;;;1.00;;
24813;SDS011;12904;50.088;11.414;2023-04-24T13:51:50;1.48;;;1.17;;
24813;SDS011;12904;50.088;11.414;2023-04-24T13:54:17;2.42;;;1.20;;
24813;SDS011;12904;50.088;11.414;2023-04-24T13:56:43;1.73;;;1.10;;
24813;SDS011;12904;50.088;11.414;2023-04-24T13:59:08;1.27;;;1.17;;
24813;SDS011;12904;50.088;11.414;2023-04-24T14:01:34;2.22;;;1.30;;
24813;SDS011;12904;50.088;11.414;2023-04-24T14:04:00;2.03;;;1.25;;
24813;SDS011;12904;50.088;11.414;2023-04-24T14:06:26;1.10;;;1.00;;
24813;SDS011;12904;50.088;11.414;2023-04-24T14:08:52;1.52;;;1.38;;
24813;SDS011;12904;50.088;11.414;2023-04-24T14:11:18;2.00;;;1.23;;
24813;SDS011;12904;50.088;11.414;2023-04-24T14:13:44;1.65;;;1.48;;
24813;SDS011;12904;50.088;11.414;2023-04-24T14:16:10;1.45;;;1.00;;
24813;SDS011;12904;50.088;11.414;2023-04-24T14:18:36;1.55;;;1.30;;
24813;SDS011;12904;50.088;11.414;2023-04-24T14:21:03;1.33;;;1.23;;
24813;SDS011;12904;50.088;11.414;2023-04-24T14:23:29;1.67;;;1.38;;
24813;SDS011;12904;50.088;11.414;2023-04-24T14:25:55;1.70;;;1.20;;
24813;SDS011;12904;50.088;11.414;2023-04-24T14:28:21;1.52;;;1.33;;
24813;SDS011;12904;50.088;11.414;2023-04-24T14:30:47;2.95;;;1.83;;
24813;SDS011;12904;50.088;11.414;2023-04-24T14:33:13;1.85;;;1.67;;
24813;SDS011;12904;50.088;11.414;2023-04-24T14:35:42;1.52;;;1.42;;
24813;SDS011;12904;50.088;11.414;2023-04-24T14:38:08;1.33;;;1.23;;
24813;SDS011;12904;50.088;11.414;2023-04-24T14:40:34;2.10;;;1.52;;
24813;SDS011;12904;50.088;11.414;2023-04-24T14:43:00;2.65;;;1.30;;
24813;SDS011;12904;50.088;11.414;2023-04-24T14:45:26;2.63;;;1.45;;
24813;SDS011;12904;50.088;11.414;2023-04-24T14:47:52;1.95;;;1.50;;
24813;SDS011;12904;50.088;11.414;2023-04-24T14:50:18;6.30;;;1.30;;
24813;SDS011;12904;50.088;11.414;2023-04-24T14:52:44;1.38;;;1.27;;
24813;SDS011;12904;50.088;11.414;2023-04-24T14:55:10;2.20;;;1.35;;